sensor_id;sensor_type;location;lat;lon;timestamp;P1;durP1;ratioP1;P2;durP2;ratioP2
1509;SDS011;746;48.688;9.428;2023-05-10T00:00:11;2.83;;;2.50;;
1509;SDS011;746;48.688;9.428;2023-05-10T00:02:33;2.47;;;2.37;;
1509;SDS011;746;48.688;9.428;2023-05-10T00:04:55;2.87;;;2.20;;
1509;SDS011;746;48.688;9.428;2023-05-10T00:07:18;2.33;;;2.13;;
1509;SDS011;746;48.688;9.428;2023-05-10T00:09:39;2.20;;;2.10;;
1509;SDS011;746;48.688;9.428;2023-05-10T00:12:00;2.40;;;2.10;;
1509;SDS011;746;48.688;9.428;2023-05-10T00:14:22;1.90;;;1.80;;
1509;SDS011;746;48.688;9.428;2023-05-10T00:16:43;1.90;;;1.80;;
1509;SDS011;746;48.688;9.428;2023-05-10T00:19:05;1.80;;;1.80;;
1509;SDS011;746;48.688;9.428;2023-05-10T00:21:26;1.97;;;1.73;;
1509;SDS011;746;48.688;9.428;2023-05-10T00:23:49;1.90;;;1.80;;
1509;SDS011;746;48.688;9.428;2023-05-10T00:26:10;2.00;;;1.90;;
1509;SDS011;746;48.688;9.428;2023-05-10T00:28:31;2.03;;;1.83;;
1509;SDS011;746;48.688;9.428;2023-05-10T00:30:53;2.10;;;2.00;;
1509;SDS011;746;48.688;9.428;2023-05-10T00:33:14;1.73;;;1.63;;
1509;SDS011;746;48.688;9.428;2023-05-10T00:35:35;3.60;;;2.43;;
1509;SDS011;746;48.688;9.428;2023-05-10T00:37:57;2.40;;;2.20;;
1509;SDS011;746;48.688;9.428;2023-05-10T00:40:20;2.27;;;2.17;;
1509;SDS011;746;48.688;9.428;2023-05-10T00:42:41;2.30;;;2.20;;
1509;SDS011;746;48.688;9.428;2023-05-10T00:45:03;2.30;;;2.10;;
1509;SDS011;746;48.688;9.428;2023-05-10T00:47:25;2.53;;;2.33;;
1509;SDS011;746;48.688;9.428;2023-05-10T00:49:46;2.23;;;2.13;;
1509;SDS011;746;48.688;9.428;2023-05-10T00:52:07;1.33;;;1.33;;
1509;SDS011;746;48.688;9.428;2023-05-10T00:54:29;3.47;;;1.73;;
1509;SDS011;746;48.688;9.428;2023-05-10T00:56:52;1.10;;;1.10;;
1509;SDS011;746;48.688;9.428;2023-05-10T00:59:13;1.10;;;1.00;;
1509;SDS011;746;48.688;9.428;2023-05-10T01:01:35;0.90;;;0.90;;
1509;SDS011;746;48.688;9.428;2023-05-10T01:03:57;1.10;;;1.10;;
1509;SDS011;746;48.688;9.428;2023-05-10T01:06:19;1.17;;;1.03;;
1509;SDS011;746;48.688;9.428;2023-05-10T01:08:40;0.87;;;0.87;;
1509;SDS011;746;48.688;9.428;2023-05-10T01:11:02;1.60;;;1.10;;
1509;SDS011;746;48.688;9.428;2023-05-10T01:13:28;1.00;;;1.00;;
1509;SDS011;746;48.688;9.428;2023-05-10T01:15:51;1.10;;;1.10;;
1509;SDS011;746;48.688;9.428;2023-05-10T01:18:13;1.67;;;1.20;;
1509;SDS011;746;48.688;9.428;2023-05-10T01:20:35;1.73;;;0.83;;
1509;SDS011;746;48.688;9.428;2023-05-10T01:23:09;0.93;;;0.87;;
1509;SDS011;746;48.688;9.428;2023-05-10T01:25:43;0.90;;;0.90;;
1509;SDS011;746;48.688;9.428;2023-05-10T01:31:00;0.80;;;0.80;;
1509;SDS011;746;48.688;9.428;2023-05-10T01:33:25;1.00;;;1.00;;
1509;SDS011;746;48.688;9.428;2023-05-10T01:35:50;1.43;;;0.83;;
1509;SDS011;746;48.688;9.428;2023-05-10T01:38:15;0.80;;;0.80;;
1509;SDS011;746;48.688;9.428;2023-05-10T01:40:39;0.80;;;0.70;;
1509;SDS011;746;48.688;9.428;2023-05-10T01:43:01;0.60;;;0.60;;
1509;SDS011;746;48.688;9.428;2023-05-10T01:45:24;1.80;;;0.73;;
1509;SDS011;746;48.688;9.428;2023-05-10T01:47:50;0.80;;;0.80;;
1509;SDS011;746;48.688;9.428;2023-05-10T01:50:15;0.80;;;0.80;;
1509;SDS011;746;48.688;9.428;2023-05-10T01:52:38;1.90;;;0.70;;
1509;SDS011;746;48.688;9.428;2023-05-10T01:55:05;1.33;;;0.57;;
1509;SDS011;746;48.688;9.428;2023-05-10T01:57:27;1.70;;;0.83;;
1509;SDS011;746;48.688;9.428;2023-05-10T01:59:51;1.10;;;1.00;;
1509;SDS011;746;48.688;9.428;2023-05-10T02:02:12;0.80;;;0.80;;
1509;SDS011;746;48.688;9.428;2023-05-10T02:04:35;0.70;;;0.70;;
1509;SDS011;746;48.688;9.428;2023-05-10T02:06:59;1.70;;;0.87;;
1509;SDS011;746;48.688;9.428;2023-05-10T02:09:21;0.67;;;0.67;;
1509;SDS011;746;48.688;9.428;2023-05-10T02:11:43;1.17;;;0.67;;
1509;SDS011;746;48.688;9.428;2023-05-10T02:14:04;1.10;;;0.53;;
1509;SDS011;746;48.688;9.428;2023-05-10T02:16:26;0.83;;;0.83;;
1509;SDS011;746;48.688;9.428;2023-05-10T02:18:50;0.60;;;0.60;;
1509;SDS011;746;48.688;9.428;2023-05-10T02:21:12;0.70;;;0.70;;
1509;SDS011;746;48.688;9.428;2023-05-10T02:23:36;0.60;;;0.60;;
1509;SDS011;746;48.688;9.428;2023-05-10T02:25:58;0.60;;;0.60;;
1509;SDS011;746;48.688;9.428;2023-05-10T02:28:20;0.60;;;0.60;;
1509;SDS011;746;48.688;9.428;2023-05-10T02:30:42;0.70;;;0.70;;
1509;SDS011;746;48.688;9.428;2023-05-10T02:33:04;0.60;;;0.60;;
1509;SDS011;746;48.688;9.428;2023-05-10T02:35:26;2.57;;;0.83;;
1509;SDS011;746;48.688;9.428;2023-05-10T02:37:48;0.80;;;0.67;;
1509;SDS011;746;48.688;9.428;2023-05-10T02:40:11;0.87;;;0.87;;
1509;SDS011;746;48.688;9.428;2023-05-10T02:42:35;0.80;;;0.80;;
1509;SDS011;746;48.688;9.428;2023-05-10T02:44:56;1.80;;;0.73;;
1509;SDS011;746;48.688;9.428;2023-05-10T02:47:20;0.90;;;0.77;;
1509;SDS011;746;48.688;9.428;2023-05-10T02:49:42;0.70;;;0.70;;
1509;SDS011;746;48.688;9.428;2023-05-10T02:52:05;0.80;;;0.80;;
1509;SDS011;746;48.688;9.428;2023-05-10T02:54:27;1.57;;;1.00;;
1509;SDS011;746;48.688;9.428;2023-05-10T02:56:53;2.40;;;1.00;;
1509;SDS011;746;48.688;9.428;2023-05-10T02:59:16;1.00;;;1.00;;
1509;SDS011;746;48.688;9.428;2023-05-10T03:01:38;1.97;;;1.10;;
1509;SDS011;746;48.688;9.428;2023-05-10T03:03:59;1.10;;;1.10;;
1509;SDS011;746;48.688;9.428;2023-05-10T03:06:20;1.30;;;1.03;;
1509;SDS011;746;48.688;9.428;2023-05-10T03:08:42;2.30;;;0.80;;
1509;SDS011;746;48.688;9.428;2023-05-10T03:11:16;0.93;;;0.70;;
1509;SDS011;746;48.688;9.428;2023-05-10T03:13:43;0.97;;;0.87;;
1509;SDS011;746;48.688;9.428;2023-05-10T03:16:06;2.23;;;1.00;;
1509;SDS011;746;48.688;9.428;2023-05-10T03:18:29;1.00;;;1.00;;
1509;SDS011;746;48.688;9.428;2023-05-10T03:20:55;1.67;;;1.00;;
1509;SDS011;746;48.688;9.428;2023-05-10T03:23:21;1.70;;;1.00;;
1509;SDS011;746;48.688;9.428;2023-05-10T03:25:42;3.40;;;1.10;;
1509;SDS011;746;48.688;9.428;2023-05-10T03:28:04;1.43;;;0.80;;
1509;SDS011;746;48.688;9.428;2023-05-10T03:30:27;0.93;;;0.93;;
1509;SDS011;746;48.688;9.428;2023-05-10T03:32:48;1.00;;;0.90;;
1509;SDS011;746;48.688;9.428;2023-05-10T03:35:11;1.63;;;0.90;;
1509;SDS011;746;48.688;9.428;2023-05-10T03:37:32;2.43;;;0.80;;
1509;SDS011;746;48.688;9.428;2023-05-10T03:39:54;1.33;;;0.87;;
1509;SDS011;746;48.688;9.428;2023-05-10T03:42:15;5.70;;;1.20;;
1509;SDS011;746;48.688;9.428;2023-05-10T03:44:37;1.20;;;1.10;;
1509;SDS011;746;48.688;9.428;2023-05-10T03:47:00;1.03;;;0.90;;
1509;SDS011;746;48.688;9.428;2023-05-10T03:49:21;0.97;;;0.97;;
1509;SDS011;746;48.688;9.428;2023-05-10T03:51:43;1.40;;;1.30;;
1509;SDS011;746;48.688;9.428;2023-05-10T03:54:04;1.30;;;1.30;;
1509;SDS011;746;48.688;9.428;2023-05-10T03:56:26;1.00;;;1.00;;
1509;SDS011;746;48.688;9.428;2023-05-10T03:58:47;0.90;;;0.87;;
1509;SDS011;746;48.688;9.428;2023-05-10T04:01:09;3.30;;;1.20;;
1509;SDS011;746;48.688;9.428;2023-05-10T04:03:32;1.37;;;1.27;;
1509;SDS011;746;48.688;9.428;2023-05-10T04:05:59;1.03;;;1.03;;
1509;SDS011;746;48.688;9.428;2023-05-10T04:08:21;1.43;;;1.00;;
1509;SDS011;746;48.688;9.428;2023-05-10T04:10:42;1.10;;;1.10;;
1509;SDS011;746;48.688;9.428;2023-05-10T04:13:04;1.10;;;1.10;;
1509;SDS011;746;48.688;9.428;2023-05-10T04:15:25;1.10;;;1.10;;
1509;SDS011;746;48.688;9.428;2023-05-10T04:17:47;2.10;;;1.30;;
1509;SDS011;746;48.688;9.428;2023-05-10T04:20:10;2.53;;;1.40;;
1509;SDS011;746;48.688;9.428;2023-05-10T04:22:31;2.07;;;1.03;;
1509;SDS011;746;48.688;9.428;2023-05-10T04:24:53;1.03;;;1.03;;
1509;SDS011;746;48.688;9.428;2023-05-10T04:27:14;1.07;;;1.07;;
1509;SDS011;746;48.688;9.428;2023-05-10T04:29:36;1.67;;;1.10;;
1509;SDS011;746;48.688;9.428;2023-05-10T04:31:57;3.10;;;1.50;;
1509;SDS011;746;48.688;9.428;2023-05-10T04:34:20;1.40;;;1.30;;
1509;SDS011;746;48.688;9.428;2023-05-10T04:36:42;2.63;;;1.33;;
1509;SDS011;746;48.688;9.428;2023-05-10T04:39:03;1.40;;;1.30;;
1509;SDS011;746;48.688;9.428;2023-05-10T04:41:25;1.40;;;1.30;;
1509;SDS011;746;48.688;9.428;2023-05-10T04:43:46;2.20;;;1.60;;
1509;SDS011;746;48.688;9.428;2023-05-10T04:46:09;4.70;;;1.40;;
1509;SDS011;746;48.688;9.428;2023-05-10T04:48:30;1.30;;;1.30;;
1509;SDS011;746;48.688;9.428;2023-05-10T04:50:52;1.70;;;1.37;;
1509;SDS011;746;48.688;9.428;2023-05-10T04:53:14;1.53;;;1.43;;
1509;SDS011;746;48.688;9.428;2023-05-10T04:55:36;1.40;;;1.30;;
1509;SDS011;746;48.688;9.428;2023-05-10T04:57:58;1.73;;;1.30;;
1509;SDS011;746;48.688;9.428;2023-05-10T05:00:20;1.73;;;1.30;;
1509;SDS011;746;48.688;9.428;2023-05-10T05:02:42;1.60;;;1.60;;
1509;SDS011;746;48.688;9.428;2023-05-10T05:05:04;1.37;;;1.33;;
1509;SDS011;746;48.688;9.428;2023-05-10T05:07:25;2.67;;;1.70;;
1509;SDS011;746;48.688;9.428;2023-05-10T05:09:48;1.63;;;1.53;;
1509;SDS011;746;48.688;9.428;2023-05-10T05:12:09;1.60;;;1.50;;
1509;SDS011;746;48.688;9.428;2023-05-10T05:14:33;1.50;;;1.40;;
1509;SDS011;746;48.688;9.428;2023-05-10T05:16:55;1.20;;;1.20;;
1509;SDS011;746;48.688;9.428;2023-05-10T05:19:17;1.53;;;1.43;;
1509;SDS011;746;48.688;9.428;2023-05-10T05:21:38;1.50;;;1.40;;
1509;SDS011;746;48.688;9.428;2023-05-10T05:24:00;1.30;;;1.30;;
1509;SDS011;746;48.688;9.428;2023-05-10T05:26:23;2.63;;;1.60;;
1509;SDS011;746;48.688;9.428;2023-05-10T05:28:44;1.67;;;1.53;;
1509;SDS011;746;48.688;9.428;2023-05-10T05:31:05;1.60;;;1.50;;
1509;SDS011;746;48.688;9.428;2023-05-10T05:33:27;1.60;;;1.50;;
1509;SDS011;746;48.688;9.428;2023-05-10T05:35:48;2.20;;;1.40;;
1509;SDS011;746;48.688;9.428;2023-05-10T05:38:10;1.57;;;1.47;;
1509;SDS011;746;48.688;9.428;2023-05-10T05:40:31;1.70;;;1.47;;
1509;SDS011;746;48.688;9.428;2023-05-10T05:42:54;2.03;;;1.60;;
1509;SDS011;746;48.688;9.428;2023-05-10T05:45:16;1.50;;;1.50;;
1509;SDS011;746;48.688;9.428;2023-05-10T05:47:38;2.03;;;1.80;;
1509;SDS011;746;48.688;9.428;2023-05-10T05:49:59;1.90;;;1.80;;
1509;SDS011;746;48.688;9.428;2023-05-10T05:52:20;3.80;;;2.40;;
1509;SDS011;746;48.688;9.428;2023-05-10T05:54:42;2.10;;;2.00;;
1509;SDS011;746;48.688;9.428;2023-05-10T05:57:03;4.57;;;2.30;;
1509;SDS011;746;48.688;9.428;2023-05-10T05:59:26;2.60;;;2.30;;
1509;SDS011;746;48.688;9.428;2023-05-10T06:01:48;2.37;;;2.27;;
1509;SDS011;746;48.688;9.428;2023-05-10T06:04:09;2.33;;;2.13;;
1509;SDS011;746;48.688;9.428;2023-05-10T06:06:30;3.00;;;2.13;;
1509;SDS011;746;48.688;9.428;2023-05-10T06:08:52;2.47;;;2.37;;
1509;SDS011;746;48.688;9.428;2023-05-10T06:11:13;1.90;;;1.80;;
1509;SDS011;746;48.688;9.428;2023-05-10T06:13:34;1.87;;;1.77;;
1509;SDS011;746;48.688;9.428;2023-05-10T06:15:57;2.10;;;1.80;;
1509;SDS011;746;48.688;9.428;2023-05-10T06:18:18;1.90;;;1.80;;
1509;SDS011;746;48.688;9.428;2023-05-10T06:20:40;2.60;;;1.80;;
1509;SDS011;746;48.688;9.428;2023-05-10T06:23:02;3.67;;;1.73;;
1509;SDS011;746;48.688;9.428;2023-05-10T06:25:23;3.00;;;1.83;;
1509;SDS011;746;48.688;9.428;2023-05-10T06:27:45;1.80;;;1.70;;
1509;SDS011;746;48.688;9.428;2023-05-10T06:30:12;2.10;;;1.90;;
1509;SDS011;746;48.688;9.428;2023-05-10T06:32:36;1.60;;;1.50;;
1509;SDS011;746;48.688;9.428;2023-05-10T06:34:57;3.83;;;2.07;;
1509;SDS011;746;48.688;9.428;2023-05-10T06:37:19;1.70;;;1.60;;
1509;SDS011;746;48.688;9.428;2023-05-10T06:39:40;1.90;;;1.80;;
1509;SDS011;746;48.688;9.428;2023-05-10T06:42:01;2.80;;;1.80;;
1509;SDS011;746;48.688;9.428;2023-05-10T06:44:24;1.70;;;1.63;;
1509;SDS011;746;48.688;9.428;2023-05-10T06:46:45;1.60;;;1.40;;
1509;SDS011;746;48.688;9.428;2023-05-10T06:49:08;1.57;;;1.47;;
1509;SDS011;746;48.688;9.428;2023-05-10T06:51:29;1.63;;;1.53;;
1509;SDS011;746;48.688;9.428;2023-05-10T06:53:51;1.60;;;1.50;;
1509;SDS011;746;48.688;9.428;2023-05-10T06:56:12;2.83;;;1.63;;
1509;SDS011;746;48.688;9.428;2023-05-10T06:58:34;1.50;;;1.50;;
1509;SDS011;746;48.688;9.428;2023-05-10T07:01:01;1.70;;;1.60;;
1509;SDS011;746;48.688;9.428;2023-05-10T07:03:22;1.77;;;1.67;;
1509;SDS011;746;48.688;9.428;2023-05-10T07:05:45;1.77;;;1.37;;
1509;SDS011;746;48.688;9.428;2023-05-10T07:08:06;1.67;;;1.50;;
1509;SDS011;746;48.688;9.428;2023-05-10T07:10:28;1.70;;;1.60;;
1509;SDS011;746;48.688;9.428;2023-05-10T07:12:49;2.13;;;1.50;;
1509;SDS011;746;48.688;9.428;2023-05-10T07:15:11;1.83;;;1.63;;
1509;SDS011;746;48.688;9.428;2023-05-10T07:17:32;2.23;;;1.50;;
1509;SDS011;746;48.688;9.428;2023-05-10T07:19:54;1.80;;;1.70;;
1509;SDS011;746;48.688;9.428;2023-05-10T07:22:17;1.50;;;1.50;;
1509;SDS011;746;48.688;9.428;2023-05-10T07:24:38;1.60;;;1.60;;
1509;SDS011;746;48.688;9.428;2023-05-10T07:26:59;2.20;;;1.70;;
1509;SDS011;746;48.688;9.428;2023-05-10T07:29:21;1.80;;;1.70;;
1509;SDS011;746;48.688;9.428;2023-05-10T07:31:42;1.90;;;1.73;;
1509;SDS011;746;48.688;9.428;2023-05-10T07:34:04;1.80;;;1.70;;
1509;SDS011;746;48.688;9.428;2023-05-10T07:36:25;1.97;;;1.87;;
1509;SDS011;746;48.688;9.428;2023-05-10T07:38:48;1.90;;;1.80;;
1509;SDS011;746;48.688;9.428;2023-05-10T07:41:10;1.70;;;1.60;;
1509;SDS011;746;48.688;9.428;2023-05-10T07:43:32;1.93;;;1.73;;
1509;SDS011;746;48.688;9.428;2023-05-10T07:45:54;2.07;;;1.90;;
1509;SDS011;746;48.688;9.428;2023-05-10T07:48:17;3.00;;;1.77;;
1509;SDS011;746;48.688;9.428;2023-05-10T07:50:38;3.10;;;1.87;;
1509;SDS011;746;48.688;9.428;2023-05-10T07:53:00;1.60;;;1.50;;
1509;SDS011;746;48.688;9.428;2023-05-10T07:55:23;1.70;;;1.60;;
1509;SDS011;746;48.688;9.428;2023-05-10T07:57:44;2.10;;;1.60;;
1509;SDS011;746;48.688;9.428;2023-05-10T08:00:06;1.60;;;1.50;;
1509;SDS011;746;48.688;9.428;2023-05-10T08:02:27;1.60;;;1.50;;
1509;SDS011;746;48.688;9.428;2023-05-10T08:04:49;1.93;;;1.83;;
1509;SDS011;746;48.688;9.428;2023-05-10T08:07:10;1.50;;;1.50;;
1509;SDS011;746;48.688;9.428;2023-05-10T08:09:32;2.00;;;1.83;;
1509;SDS011;746;48.688;9.428;2023-05-10T08:11:54;1.97;;;1.50;;
1509;SDS011;746;48.688;9.428;2023-05-10T08:14:16;1.50;;;1.40;;
1509;SDS011;746;48.688;9.428;2023-05-10T08:16:38;1.37;;;1.37;;
1509;SDS011;746;48.688;9.428;2023-05-10T08:18:59;1.57;;;1.47;;
1509;SDS011;746;48.688;9.428;2023-05-10T08:21:20;1.80;;;1.50;;
1509;SDS011;746;48.688;9.428;2023-05-10T08:23:42;2.00;;;1.33;;
1509;SDS011;746;48.688;9.428;2023-05-10T08:26:04;1.87;;;1.50;;
1509;SDS011;746;48.688;9.428;2023-05-10T08:28:27;1.37;;;1.30;;
1509;SDS011;746;48.688;9.428;2023-05-10T08:30:49;1.27;;;1.17;;
1509;SDS011;746;48.688;9.428;2023-05-10T08:33:10;1.50;;;1.40;;
1509;SDS011;746;48.688;9.428;2023-05-10T08:35:31;1.40;;;1.30;;
1509;SDS011;746;48.688;9.428;2023-05-10T08:37:54;1.53;;;1.37;;
1509;SDS011;746;48.688;9.428;2023-05-10T08:40:16;5.23;;;1.50;;
1509;SDS011;746;48.688;9.428;2023-05-10T08:42:40;1.20;;;1.20;;
1509;SDS011;746;48.688;9.428;2023-05-10T08:45:04;1.50;;;1.40;;
1509;SDS011;746;48.688;9.428;2023-05-10T08:47:27;1.30;;;1.20;;
1509;SDS011;746;48.688;9.428;2023-05-10T08:49:50;1.20;;;1.20;;
1509;SDS011;746;48.688;9.428;2023-05-10T08:52:11;2.70;;;1.30;;
1509;SDS011;746;48.688;9.428;2023-05-10T08:54:34;1.50;;;1.40;;
1509;SDS011;746;48.688;9.428;2023-05-10T08:56:56;1.20;;;1.20;;
1509;SDS011;746;48.688;9.428;2023-05-10T08:59:17;1.60;;;1.20;;
1509;SDS011;746;48.688;9.428;2023-05-10T09:01:40;1.50;;;1.33;;
1509;SDS011;746;48.688;9.428;2023-05-10T09:04:03;2.60;;;1.10;;
1509;SDS011;746;48.688;9.428;2023-05-10T09:06:25;1.40;;;1.30;;
1509;SDS011;746;48.688;9.428;2023-05-10T09:08:46;1.23;;;1.20;;
1509;SDS011;746;48.688;9.428;2023-05-10T09:11:07;1.70;;;1.27;;
1509;SDS011;746;48.688;9.428;2023-05-10T09:13:29;1.73;;;1.60;;
1509;SDS011;746;48.688;9.428;2023-05-10T09:15:50;1.10;;;1.10;;
1509;SDS011;746;48.688;9.428;2023-05-10T09:18:13;1.17;;;1.17;;
1509;SDS011;746;48.688;9.428;2023-05-10T09:20:35;1.10;;;1.10;;
1509;SDS011;746;48.688;9.428;2023-05-10T09:22:57;1.60;;;1.20;;
1509;SDS011;746;48.688;9.428;2023-05-10T09:25:18;2.17;;;1.33;;
1509;SDS011;746;48.688;9.428;2023-05-10T09:27:40;1.60;;;1.30;;
1509;SDS011;746;48.688;9.428;2023-05-10T09:30:02;2.17;;;1.37;;
1509;SDS011;746;48.688;9.428;2023-05-10T09:32:26;1.10;;;1.10;;
1509;SDS011;746;48.688;9.428;2023-05-10T09:34:58;1.13;;;1.13;;
1509;SDS011;746;48.688;9.428;2023-05-10T09:37:29;1.73;;;1.30;;
1509;SDS011;746;48.688;9.428;2023-05-10T09:39:50;1.30;;;1.20;;
1509;SDS011;746;48.688;9.428;2023-05-10T09:42:17;2.33;;;1.50;;
1509;SDS011;746;48.688;9.428;2023-05-10T09:44:39;1.20;;;1.10;;
1509;SDS011;746;48.688;9.428;2023-05-10T09:47:00;1.40;;;1.30;;
1509;SDS011;746;48.688;9.428;2023-05-10T09:49:22;1.33;;;1.23;;
1509;SDS011;746;48.688;9.428;2023-05-10T09:51:44;1.47;;;1.37;;
1509;SDS011;746;48.688;9.428;2023-05-10T09:54:09;1.17;;;1.17;;
1509;SDS011;746;48.688;9.428;2023-05-10T09:56:34;1.07;;;1.07;;
1509;SDS011;746;48.688;9.428;2023-05-10T09:59:01;1.00;;;1.00;;
1509;SDS011;746;48.688;9.428;2023-05-10T10:01:25;1.10;;;1.00;;
1509;SDS011;746;48.688;9.428;2023-05-10T10:03:47;1.10;;;1.10;;
1509;SDS011;746;48.688;9.428;2023-05-10T10:06:10;2.77;;;1.00;;
1509;SDS011;746;48.688;9.428;2023-05-10T10:08:50;1.10;;;1.10;;
1509;SDS011;746;48.688;9.428;2023-05-10T10:11:14;1.20;;;1.10;;
1509;SDS011;746;48.688;9.428;2023-05-10T10:13:36;1.40;;;1.27;;
1509;SDS011;746;48.688;9.428;2023-05-10T10:15:57;1.30;;;1.30;;
1509;SDS011;746;48.688;9.428;2023-05-10T10:18:18;1.20;;;1.07;;
1509;SDS011;746;48.688;9.428;2023-05-10T10:20:43;1.13;;;1.13;;
1509;SDS011;746;48.688;9.428;2023-05-10T10:23:04;1.07;;;1.00;;
1509;SDS011;746;48.688;9.428;2023-05-10T10:25:27;1.07;;;1.07;;
1509;SDS011;746;48.688;9.428;2023-05-10T10:27:54;1.37;;;1.27;;
1509;SDS011;746;48.688;9.428;2023-05-10T10:30:21;1.00;;;1.00;;
1509;SDS011;746;48.688;9.428;2023-05-10T10:32:50;1.20;;;1.10;;
1509;SDS011;746;48.688;9.428;2023-05-10T10:35:16;1.60;;;1.20;;
1509;SDS011;746;48.688;9.428;2023-05-10T10:37:43;1.20;;;1.10;;
1509;SDS011;746;48.688;9.428;2023-05-10T10:40:19;1.00;;;1.00;;
1509;SDS011;746;48.688;9.428;2023-05-10T10:42:48;1.13;;;1.13;;
1509;SDS011;746;48.688;9.428;2023-05-10T10:45:12;2.33;;;1.40;;
1509;SDS011;746;48.688;9.428;2023-05-10T10:47:34;3.07;;;1.10;;
1509;SDS011;746;48.688;9.428;2023-05-10T10:50:04;1.40;;;1.20;;
1509;SDS011;746;48.688;9.428;2023-05-10T10:52:26;1.60;;;1.20;;
1509;SDS011;746;48.688;9.428;2023-05-10T10:54:50;1.60;;;1.10;;
1509;SDS011;746;48.688;9.428;2023-05-10T10:57:13;1.23;;;1.23;;
1509;SDS011;746;48.688;9.428;2023-05-10T10:59:35;1.20;;;1.20;;
1509;SDS011;746;48.688;9.428;2023-05-10T11:01:57;1.30;;;1.20;;
1509;SDS011;746;48.688;9.428;2023-05-10T11:04:19;3.30;;;1.30;;
1509;SDS011;746;48.688;9.428;2023-05-10T11:06:41;1.10;;;1.00;;
1509;SDS011;746;48.688;9.428;2023-05-10T11:09:04;1.80;;;1.10;;
1509;SDS011;746;48.688;9.428;2023-05-10T11:11:26;1.00;;;1.00;;
1509;SDS011;746;48.688;9.428;2023-05-10T11:13:47;1.13;;;1.03;;
1509;SDS011;746;48.688;9.428;2023-05-10T11:16:16;1.10;;;1.03;;
1509;SDS011;746;48.688;9.428;2023-05-10T11:18:38;1.53;;;1.00;;
1509;SDS011;746;48.688;9.428;2023-05-10T11:21:00;1.07;;;1.07;;
1509;SDS011;746;48.688;9.428;2023-05-10T11:23:23;5.33;;;1.50;;
1509;SDS011;746;48.688;9.428;2023-05-10T11:25:44;1.30;;;1.30;;
1509;SDS011;746;48.688;9.428;2023-05-10T11:28:06;1.60;;;1.50;;
1509;SDS011;746;48.688;9.428;2023-05-10T11:30:27;1.37;;;1.30;;
1509;SDS011;746;48.688;9.428;2023-05-10T11:32:49;1.40;;;1.30;;
1509;SDS011;746;48.688;9.428;2023-05-10T11:35:11;2.63;;;1.40;;
1509;SDS011;746;48.688;9.428;2023-05-10T11:37:33;2.10;;;1.63;;
1509;SDS011;746;48.688;9.428;2023-05-10T11:39:54;2.17;;;1.40;;
1509;SDS011;746;48.688;9.428;2023-05-10T11:42:16;2.20;;;1.50;;
1509;SDS011;746;48.688;9.428;2023-05-10T11:44:38;1.37;;;1.27;;
1509;SDS011;746;48.688;9.428;2023-05-10T11:47:00;1.10;;;1.00;;
1509;SDS011;746;48.688;9.428;2023-05-10T11:49:24;3.43;;;1.10;;
1509;SDS011;746;48.688;9.428;2023-05-10T11:51:47;3.63;;;1.13;;
1509;SDS011;746;48.688;9.428;2023-05-10T11:54:08;1.10;;;1.10;;
1509;SDS011;746;48.688;9.428;2023-05-10T11:56:29;1.40;;;1.30;;
1509;SDS011;746;48.688;9.428;2023-05-10T11:58:54;2.87;;;1.30;;
1509;SDS011;746;48.688;9.428;2023-05-10T12:01:15;1.40;;;1.30;;
1509;SDS011;746;48.688;9.428;2023-05-10T12:03:37;1.10;;;1.10;;
1509;SDS011;746;48.688;9.428;2023-05-10T12:06:00;1.47;;;1.37;;
1509;SDS011;746;48.688;9.428;2023-05-10T12:08:22;2.43;;;1.40;;
1509;SDS011;746;48.688;9.428;2023-05-10T12:10:44;1.47;;;1.00;;
1509;SDS011;746;48.688;9.428;2023-05-10T12:13:10;2.17;;;1.50;;
1509;SDS011;746;48.688;9.428;2023-05-10T12:15:31;1.70;;;1.30;;
1509;SDS011;746;48.688;9.428;2023-05-10T12:17:53;2.30;;;1.30;;
1509;SDS011;746;48.688;9.428;2023-05-10T12:20:15;5.97;;;1.70;;
1509;SDS011;746;48.688;9.428;2023-05-10T12:22:38;1.93;;;1.60;;
1509;SDS011;746;48.688;9.428;2023-05-10T12:25:00;2.47;;;1.60;;
1509;SDS011;746;48.688;9.428;2023-05-10T12:27:21;4.03;;;1.57;;
1509;SDS011;746;48.688;9.428;2023-05-10T12:29:43;3.70;;;1.97;;
1509;SDS011;746;48.688;9.428;2023-05-10T12:32:04;2.60;;;1.90;;
1509;SDS011;746;48.688;9.428;2023-05-10T12:34:26;2.30;;;2.10;;
1509;SDS011;746;48.688;9.428;2023-05-10T12:36:49;5.37;;;2.03;;
1509;SDS011;746;48.688;9.428;2023-05-10T12:39:12;5.07;;;2.13;;
1509;SDS011;746;48.688;9.428;2023-05-10T12:41:33;2.33;;;2.00;;
1509;SDS011;746;48.688;9.428;2023-05-10T12:43:54;2.10;;;1.70;;
1509;SDS011;746;48.688;9.428;2023-05-10T12:46:16;4.90;;;1.90;;
1509;SDS011;746;48.688;9.428;2023-05-10T12:48:39;1.47;;;1.43;;
1509;SDS011;746;48.688;9.428;2023-05-10T12:51:01;1.83;;;1.73;;
1509;SDS011;746;48.688;9.428;2023-05-10T12:53:22;1.57;;;1.47;;
1509;SDS011;746;48.688;9.428;2023-05-10T12:55:45;3.03;;;1.50;;
1509;SDS011;746;48.688;9.428;2023-05-10T12:58:06;1.50;;;1.50;;
1509;SDS011;746;48.688;9.428;2023-05-10T13:00:28;1.60;;;1.50;;
1509;SDS011;746;48.688;9.428;2023-05-10T13:02:49;1.50;;;1.43;;
1509;SDS011;746;48.688;9.428;2023-05-10T13:05:11;1.57;;;1.47;;
1509;SDS011;746;48.688;9.428;2023-05-10T13:07:33;2.70;;;1.80;;
1509;SDS011;746;48.688;9.428;2023-05-10T13:09:54;1.97;;;1.87;;
1509;SDS011;746;48.688;9.428;2023-05-10T13:12:16;2.30;;;2.10;;
1509;SDS011;746;48.688;9.428;2023-05-10T13:14:38;2.40;;;1.90;;
1509;SDS011;746;48.688;9.428;2023-05-10T13:17:00;2.30;;;2.10;;
1509;SDS011;746;48.688;9.428;2023-05-10T13:19:21;4.10;;;2.20;;
1509;SDS011;746;48.688;9.428;2023-05-10T13:21:43;2.80;;;2.30;;
1509;SDS011;746;48.688;9.428;2023-05-10T13:24:04;2.60;;;2.40;;
1509;SDS011;746;48.688;9.428;2023-05-10T13:26:26;3.70;;;2.30;;
1509;SDS011;746;48.688;9.428;2023-05-10T13:28:49;2.53;;;2.20;;
1509;SDS011;746;48.688;9.428;2023-05-10T13:31:12;5.53;;;2.10;;
1509;SDS011;746;48.688;9.428;2023-05-10T13:33:33;2.77;;;1.67;;
1509;SDS011;746;48.688;9.428;2023-05-10T13:35:54;2.37;;;1.87;;
1509;SDS011;746;48.688;9.428;2023-05-10T13:38:16;2.70;;;1.87;;
1509;SDS011;746;48.688;9.428;2023-05-10T13:40:40;2.70;;;1.80;;
1509;SDS011;746;48.688;9.428;2023-05-10T13:43:01;1.80;;;1.70;;
1509;SDS011;746;48.688;9.428;2023-05-10T13:45:24;1.60;;;1.50;;
1509;SDS011;746;48.688;9.428;2023-05-10T13:47:45;1.77;;;1.67;;
1509;SDS011;746;48.688;9.428;2023-05-10T13:50:07;2.43;;;1.60;;
1509;SDS011;746;48.688;9.428;2023-05-10T13:52:28;1.87;;;1.70;;
1509;SDS011;746;48.688;9.428;2023-05-10T13:54:50;2.43;;;1.50;;
1509;SDS011;746;48.688;9.428;2023-05-10T13:57:14;2.10;;;1.83;;
1509;SDS011;746;48.688;9.428;2023-05-10T13:59:36;1.80;;;1.70;;
1509;SDS011;746;48.688;9.428;2023-05-10T14:01:59;2.83;;;1.43;;
1509;SDS011;746;48.688;9.428;2023-05-10T14:04:22;1.63;;;1.50;;
1509;SDS011;746;48.688;9.428;2023-05-10T14:06:43;2.00;;;1.90;;
1509;SDS011;746;48.688;9.428;2023-05-10T14:09:05;2.00;;;1.50;;
1509;SDS011;746;48.688;9.428;2023-05-10T14:11:26;1.40;;;1.40;;
1509;SDS011;746;48.688;9.428;2023-05-10T14:13:48;2.73;;;1.90;;
1509;SDS011;746;48.688;9.428;2023-05-10T14:16:09;2.67;;;1.70;;
1509;SDS011;746;48.688;9.428;2023-05-10T14:18:33;2.63;;;1.90;;
1509;SDS011;746;48.688;9.428;2023-05-10T14:20:54;7.60;;;3.60;;
1509;SDS011;746;48.688;9.428;2023-05-10T14:23:15;1.90;;;1.80;;
1509;SDS011;746;48.688;9.428;2023-05-10T14:25:37;2.93;;;1.50;;
1509;SDS011;746;48.688;9.428;2023-05-10T14:27:58;1.80;;;1.70;;
1509;SDS011;746;48.688;9.428;2023-05-10T14:30:20;1.43;;;1.40;;
1509;SDS011;746;48.688;9.428;2023-05-10T14:32:41;1.57;;;1.37;;
1509;SDS011;746;48.688;9.428;2023-05-10T14:35:04;1.83;;;1.40;;
1509;SDS011;746;48.688;9.428;2023-05-10T14:37:25;1.37;;;1.37;;
1509;SDS011;746;48.688;9.428;2023-05-10T14:39:47;2.43;;;1.70;;
1509;SDS011;746;48.688;9.428;2023-05-10T14:42:08;2.10;;;1.50;;
1509;SDS011;746;48.688;9.428;2023-05-10T14:44:30;1.60;;;1.50;;
1509;SDS011;746;48.688;9.428;2023-05-10T14:46:51;2.67;;;1.43;;
1509;SDS011;746;48.688;9.428;2023-05-10T14:49:13;1.63;;;1.40;;
1509;SDS011;746;48.688;9.428;2023-05-10T14:51:36;1.60;;;1.50;;
1509;SDS011;746;48.688;9.428;2023-05-10T14:53:58;1.97;;;1.60;;
1509;SDS011;746;48.688;9.428;2023-05-10T14:56:19;1.60;;;1.50;;
1509;SDS011;746;48.688;9.428;2023-05-10T14:58:42;1.53;;;1.43;;
1509;SDS011;746;48.688;9.428;2023-05-10T15:01:04;1.60;;;1.43;;